createdAt,value
2022-09-23T00:00:46.000Z,99.99
2022-09-23T00:01:46.000Z,99.99
2022-09-23T00:02:46.000Z,99.99
2022-09-23T00:03:46.000Z,99.99
2022-09-23T00:04:46.000Z,99.99
2022-09-23T00:05:46.000Z,99.99
2022-09-23T00:06:46.000Z,99.99
2022-09-23T00:07:46.000Z,99.99
2022-09-23T00:08:46.000Z,99.98
2022-09-23T00:09:46.000Z,99.87
2022-09-23T00:10:46.000Z,99.77
2022-09-23T00:11:46.000Z,99.77
2022-09-23T00:12:46.000Z,99.77
2022-09-23T00:13:46.000Z,99.87
2022-09-23T00:14:46.000Z,99.87
2022-09-23T00:15:46.000Z,99.87
2022-09-23T00:16:46.000Z,99.77
2022-09-23T00:17:46.000Z,99.98
2022-09-23T00:18:46.000Z,99.77
2022-09-23T00:19:46.000Z,99.77
2022-09-23T00:20:46.000Z,99.82
2022-09-23T00:21:46.000Z,99.82
2022-09-23T00:22:46.000Z,99.92
2022-09-23T00:23:46.000Z,99.92
2022-09-23T00:24:45.000Z,99.92
2022-09-23T00:25:45.000Z,99.92
2022-09-23T00:26:45.000Z,99.71
2022-09-23T00:27:45.000Z,99.61
2022-09-23T00:28:45.000Z,99.61
2022-09-23T00:29:45.000Z,99.61
2022-09-23T00:30:45.000Z,99.71
2022-09-23T00:31:45.000Z,99.92
2022-09-23T00:32:45.000Z,99.99
2022-09-23T00:33:45.000Z,99.99
2022-09-23T00:34:45.000Z,99.99
2022-09-23T00:35:45.000Z,99.99
2022-09-23T00:36:45.000Z,99.99
2022-09-23T00:37:45.000Z,99.99
2022-09-23T00:38:45.000Z,99.99
2022-09-23T00:39:45.000Z,99.99
2022-09-23T00:40:45.000Z,99.99
2022-09-23T00:41:45.000Z,99.99
2022-09-23T00:42:45.000Z,99.99
2022-09-23T00:43:45.000Z,99.99
2022-09-23T00:44:45.000Z,99.99
2022-09-23T00:45:45.000Z,99.99
2022-09-23T00:46:45.000Z,99.99
2022-09-23T00:47:45.000Z,99.99
2022-09-23T00:48:45.000Z,99.99
2022-09-23T00:49:45.000Z,99.99
2022-09-23T00:50:45.000Z,99.99
2022-09-23T00:51:45.000Z,99.99
2022-09-23T00:52:45.000Z,99.99
2022-09-23T00:53:45.000Z,99.99
2022-09-23T00:54:45.000Z,99.99
2022-09-23T00:55:45.000Z,99.99
2022-09-23T00:56:45.000Z,99.99
2022-09-23T00:57:45.000Z,99.99
2022-09-23T00:58:45.000Z,99.99
2022-09-23T00:59:45.000Z,99.99
2022-09-23T01:00:45.000Z,99.99
2022-09-23T01:01:45.000Z,99.99
2022-09-23T01:02:45.000Z,99.99
2022-09-23T01:03:45.000Z,99.99
2022-09-23T01:04:45.000Z,99.99
2022-09-23T01:05:45.000Z,99.99
2022-09-23T01:06:45.000Z,99.99
2022-09-23T01:07:45.000Z,99.99
2022-09-23T01:08:45.000Z,99.99
2022-09-23T01:09:45.000Z,99.99
2022-09-23T01:10:45.000Z,99.99
2022-09-23T01:11:45.000Z,99.99
2022-09-23T01:12:45.000Z,99.99
2022-09-23T01:13:45.000Z,99.99
2022-09-23T01:14:45.000Z,99.99
2022-09-23T01:15:45.000Z,99.99
2022-09-23T01:16:45.000Z,99.99
2022-09-23T01:17:45.000Z,99.99
2022-09-23T01:18:45.000Z,99.99
2022-09-23T01:19:45.000Z,99.99
2022-09-23T01:20:45.000Z,99.99
2022-09-23T01:21:45.000Z,99.99
2022-09-23T01:22:45.000Z,99.99
2022-09-23T01:23:45.000Z,99.99
2022-09-23T01:24:45.000Z,99.99
2022-09-23T01:25:45.000Z,99.99
2022-09-23T01:26:45.000Z,99.99
2022-09-23T01:27:45.000Z,99.99
2022-09-23T01:28:45.000Z,99.99
2022-09-23T01:29:45.000Z,99.99
2022-09-23T01:30:45.000Z,99.99
2022-09-23T01:31:45.000Z,99.99
2022-09-23T01:32:45.000Z,99.99
2022-09-23T01:33:45.000Z,99.99
2022-09-23T01:34:45.000Z,99.99
2022-09-23T01:35:45.000Z,99.99
2022-09-23T01:36:44.000Z,99.99
2022-09-23T01:37:44.000Z,99.99
2022-09-23T01:38:44.000Z,99.99
2022-09-23T01:39:44.000Z,99.99
2022-09-23T01:40:44.000Z,99.99
2022-09-23T01:41:44.000Z,99.99
2022-09-23T01:42:44.000Z,99.99
2022-09-23T01:43:44.000Z,99.99
2022-09-23T01:44:44.000Z,99.99
2022-09-23T01:45:44.000Z,99.99
2022-09-23T01:46:44.000Z,99.99
2022-09-23T01:47:44.000Z,99.99
2022-09-23T01:48:44.000Z,99.99
2022-09-23T01:49:44.000Z,99.99
2022-09-23T01:50:44.000Z,99.99
2022-09-23T01:51:44.000Z,99.99
2022-09-23T01:52:44.000Z,99.99
2022-09-23T01:53:44.000Z,99.99
2022-09-23T01:54:44.000Z,99.99
2022-09-23T01:55:44.000Z,99.99
2022-09-23T01:56:44.000Z,99.99
2022-09-23T01:57:44.000Z,99.99
2022-09-23T01:58:44.000Z,99.99
2022-09-23T01:59:44.000Z,99.99
2022-09-23T02:00:44.000Z,99.99
2022-09-23T02:01:44.000Z,99.99
2022-09-23T02:02:44.000Z,99.99
2022-09-23T02:03:44.000Z,99.99
2022-09-23T02:04:44.000Z,99.99
2022-09-23T02:05:44.000Z,99.99
2022-09-23T02:06:44.000Z,99.99
2022-09-23T02:07:44.000Z,99.99
2022-09-23T02:08:44.000Z,99.99
2022-09-23T02:09:44.000Z,99.99
2022-09-23T02:10:44.000Z,99.99
2022-09-23T02:11:44.000Z,99.99
2022-09-23T02:12:44.000Z,99.99
2022-09-23T02:13:44.000Z,99.99
2022-09-23T02:14:44.000Z,99.99
2022-09-23T02:15:44.000Z,99.99
2022-09-23T02:16:44.000Z,99.99
2022-09-23T02:17:44.000Z,99.99
2022-09-23T02:18:44.000Z,99.99
2022-09-23T02:19:44.000Z,99.99
2022-09-23T02:20:44.000Z,99.99
2022-09-23T02:21:44.000Z,99.99
2022-09-23T02:22:44.000Z,99.99
2022-09-23T02:23:44.000Z,99.99
2022-09-23T02:24:44.000Z,99.99
2022-09-23T02:25:44.000Z,99.99
2022-09-23T02:26:44.000Z,99.99
2022-09-23T02:27:44.000Z,99.99
2022-09-23T02:28:44.000Z,99.99
2022-09-23T02:29:44.000Z,99.99
2022-09-23T02:30:44.000Z,99.99
2022-09-23T02:31:44.000Z,99.99
2022-09-23T02:32:44.000Z,99.99
2022-09-23T02:33:44.000Z,99.99
2022-09-23T02:34:44.000Z,99.99
2022-09-23T02:35:44.000Z,99.99
2022-09-23T02:36:44.000Z,99.99
2022-09-23T02:37:44.000Z,99.99
2022-09-23T02:38:44.000Z,99.99
2022-09-23T02:39:44.000Z,99.99
2022-09-23T02:40:44.000Z,99.99
2022-09-23T02:41:44.000Z,99.99
2022-09-23T02:42:44.000Z,99.99
2022-09-23T02:43:44.000Z,99.99
2022-09-23T02:44:44.000Z,99.99
2022-09-23T02:45:44.000Z,99.99
2022-09-23T02:46:44.000Z,99.99
2022-09-23T02:47:44.000Z,99.99
2022-09-23T02:48:44.000Z,99.99
2022-09-23T02:49:44.000Z,99.99
2022-09-23T02:50:43.000Z,99.99
2022-09-23T02:51:43.000Z,99.99
2022-09-23T02:52:43.000Z,99.99
2022-09-23T02:53:43.000Z,99.99
2022-09-23T02:54:43.000Z,99.99
2022-09-23T02:55:43.000Z,99.99
2022-09-23T02:56:43.000Z,99.99
2022-09-23T02:57:43.000Z,99.99
2022-09-23T02:58:43.000Z,99.99
2022-09-23T02:59:43.000Z,99.99
2022-09-23T03:00:43.000Z,99.99
2022-09-23T03:01:43.000Z,99.99
2022-09-23T03:02:43.000Z,99.99
2022-09-23T03:03:43.000Z,99.99
2022-09-23T03:04:43.000Z,99.99
2022-09-23T03:05:43.000Z,99.99
2022-09-23T03:06:43.000Z,99.99
2022-09-23T03:07:43.000Z,99.99
2022-09-23T03:08:43.000Z,99.99
2022-09-23T03:09:43.000Z,99.99
2022-09-23T03:10:43.000Z,99.99
2022-09-23T03:11:43.000Z,99.99
2022-09-23T03:12:43.000Z,99.99
2022-09-23T03:13:43.000Z,99.99
2022-09-23T03:14:43.000Z,99.99
2022-09-23T03:15:43.000Z,99.99
2022-09-23T03:16:43.000Z,99.99
2022-09-23T03:17:43.000Z,99.99
2022-09-23T03:18:43.000Z,99.99
2022-09-23T03:19:43.000Z,99.99
2022-09-23T03:20:43.000Z,99.99
2022-09-23T03:21:43.000Z,99.99
2022-09-23T03:22:43.000Z,99.99
2022-09-23T03:23:43.000Z,99.99
2022-09-23T03:24:43.000Z,99.99
2022-09-23T03:25:43.000Z,99.99
2022-09-23T03:26:43.000Z,99.99
2022-09-23T03:27:43.000Z,99.99
2022-09-23T03:28:43.000Z,99.99
2022-09-23T03:29:43.000Z,99.99
2022-09-23T03:30:43.000Z,99.99
2022-09-23T03:31:43.000Z,99.99
2022-09-23T03:32:43.000Z,99.99
2022-09-23T03:33:43.000Z,99.99
2022-09-23T03:34:43.000Z,99.99
2022-09-23T03:35:43.000Z,99.99
2022-09-23T03:36:43.000Z,99.99
2022-09-23T03:37:43.000Z,99.99
2022-09-23T03:38:43.000Z,99.99
2022-09-23T03:39:43.000Z,99.99
2022-09-23T03:40:43.000Z,99.99
2022-09-23T03:41:43.000Z,99.99
2022-09-23T03:42:43.000Z,99.99
2022-09-23T03:43:43.000Z,99.99
2022-09-23T03:44:43.000Z,99.99
2022-09-23T03:45:43.000Z,99.99
2022-09-23T03:46:43.000Z,99.99
2022-09-23T03:47:43.000Z,99.99
2022-09-23T03:48:43.000Z,99.99
2022-09-23T03:49:43.000Z,99.99
2022-09-23T03:50:43.000Z,99.99
2022-09-23T03:51:43.000Z,99.99
2022-09-23T03:52:43.000Z,99.99
2022-09-23T03:53:43.000Z,99.99
2022-09-23T03:54:43.000Z,99.99
2022-09-23T03:55:43.000Z,99.99
2022-09-23T03:56:43.000Z,99.99
2022-09-23T03:57:43.000Z,99.99
2022-09-23T03:58:43.000Z,99.99
2022-09-23T03:59:43.000Z,99.99
2022-09-23T04:00:43.000Z,99.99
2022-09-23T04:01:43.000Z,99.99
2022-09-23T04:02:43.000Z,99.99
2022-09-23T04:03:43.000Z,99.99
2022-09-23T04:04:42.000Z,99.99
2022-09-23T04:05:42.000Z,99.99
2022-09-23T04:06:42.000Z,99.99
2022-09-23T04:07:42.000Z,99.99
2022-09-23T04:08:42.000Z,99.99
2022-09-23T04:09:42.000Z,99.99
2022-09-23T04:10:42.000Z,99.99
2022-09-23T04:11:42.000Z,99.99
2022-09-23T04:12:42.000Z,99.99
2022-09-23T04:13:42.000Z,99.99
2022-09-23T04:14:42.000Z,99.99
2022-09-23T04:15:42.000Z,99.99
2022-09-23T04:16:42.000Z,99.99
2022-09-23T04:17:42.000Z,99.99
2022-09-23T04:18:42.000Z,99.99
2022-09-23T04:19:42.000Z,99.99
2022-09-23T04:20:42.000Z,99.99
2022-09-23T04:21:42.000Z,99.99
2022-09-23T04:22:42.000Z,99.99
2022-09-23T04:23:42.000Z,99.99
2022-09-23T04:24:42.000Z,99.99
2022-09-23T04:25:42.000Z,99.99
2022-09-23T04:26:42.000Z,99.99
2022-09-23T04:27:42.000Z,99.99
2022-09-23T04:28:42.000Z,99.99
2022-09-23T04:29:42.000Z,99.99
2022-09-23T04:30:42.000Z,99.99
2022-09-23T04:31:42.000Z,99.99
2022-09-23T04:32:42.000Z,99.99
2022-09-23T04:33:42.000Z,99.99
2022-09-23T04:34:42.000Z,99.99
2022-09-23T04:35:42.000Z,99.99
2022-09-23T04:36:42.000Z,99.99
2022-09-23T04:37:42.000Z,99.99
2022-09-23T04:38:42.000Z,99.99
2022-09-23T04:39:42.000Z,99.99
2022-09-23T04:40:42.000Z,99.99
2022-09-23T04:41:42.000Z,99.99
2022-09-23T04:42:42.000Z,99.99
2022-09-23T04:43:42.000Z,99.99
2022-09-23T04:44:42.000Z,99.99
2022-09-23T04:45:42.000Z,99.99
2022-09-23T04:46:42.000Z,99.99
2022-09-23T04:47:42.000Z,99.99
2022-09-23T04:48:42.000Z,99.99
2022-09-23T04:49:42.000Z,99.99
2022-09-23T04:50:42.000Z,99.99
2022-09-23T04:51:42.000Z,99.99
2022-09-23T04:52:42.000Z,99.99
2022-09-23T04:53:42.000Z,99.99
2022-09-23T04:54:42.000Z,99.99
2022-09-23T04:55:42.000Z,99.99
2022-09-23T04:56:42.000Z,99.99
2022-09-23T04:57:42.000Z,99.99
2022-09-23T04:58:42.000Z,99.99
2022-09-23T04:59:42.000Z,99.99
2022-09-23T05:00:42.000Z,99.99
2022-09-23T05:01:42.000Z,99.99
2022-09-23T05:02:42.000Z,99.99
2022-09-23T05:03:42.000Z,99.99
2022-09-23T05:04:42.000Z,99.99
2022-09-23T05:05:42.000Z,99.99
2022-09-23T05:06:42.000Z,99.99
2022-09-23T05:07:42.000Z,99.99
2022-09-23T05:07:42.000Z,99.99
2022-09-23T05:08:42.000Z,99.99
2022-09-23T05:08:42.000Z,99.99
2022-09-23T05:09:42.000Z,99.99
2022-09-23T05:09:42.000Z,99.99
2022-09-23T05:10:42.000Z,99.99
2022-09-23T05:10:42.000Z,99.99
2022-09-23T05:11:42.000Z,99.99
2022-09-23T05:11:42.000Z,99.99
2022-09-23T05:12:42.000Z,99.99
2022-09-23T05:13:42.000Z,99.99
2022-09-23T05:14:42.000Z,99.99
2022-09-23T05:15:42.000Z,99.99
2022-09-23T05:16:42.000Z,99.99
2022-09-23T05:17:42.000Z,99.99
2022-09-23T05:18:41.000Z,99.99
2022-09-23T05:19:41.000Z,99.99
2022-09-23T05:20:41.000Z,99.99
2022-09-23T05:21:41.000Z,99.99
2022-09-23T05:22:41.000Z,99.99
2022-09-23T05:23:41.000Z,99.99
2022-09-23T05:24:41.000Z,99.99
2022-09-23T05:25:41.000Z,99.99
2022-09-23T05:26:41.000Z,99.99
2022-09-23T05:27:41.000Z,99.99
2022-09-23T05:28:41.000Z,99.99
2022-09-23T05:29:41.000Z,99.99
2022-09-23T05:30:41.000Z,99.99
2022-09-23T05:31:41.000Z,99.99
2022-09-23T05:32:41.000Z,99.99
2022-09-23T05:33:41.000Z,99.99
2022-09-23T05:34:41.000Z,99.99
2022-09-23T05:35:41.000Z,99.99
2022-09-23T05:36:41.000Z,99.99
2022-09-23T05:37:41.000Z,99.99
2022-09-23T05:38:41.000Z,99.99
2022-09-23T05:39:41.000Z,99.99
2022-09-23T05:40:41.000Z,99.99
2022-09-23T05:41:41.000Z,99.99
2022-09-23T05:42:41.000Z,99.99
2022-09-23T05:43:41.000Z,99.99
2022-09-23T05:44:41.000Z,99.99
2022-09-23T05:45:41.000Z,99.99
2022-09-23T05:46:41.000Z,99.99
2022-09-23T05:47:41.000Z,99.99
2022-09-23T05:48:41.000Z,99.99
2022-09-23T05:49:41.000Z,99.99
2022-09-23T05:50:41.000Z,99.99
2022-09-23T05:51:41.000Z,99.99
2022-09-23T05:52:41.000Z,99.99
2022-09-23T05:53:41.000Z,99.99
2022-09-23T05:54:41.000Z,99.99
2022-09-23T05:55:41.000Z,99.99
2022-09-23T05:56:41.000Z,99.99
2022-09-23T05:57:41.000Z,99.99
2022-09-23T05:58:41.000Z,99.99
2022-09-23T05:59:41.000Z,99.99
2022-09-23T06:00:41.000Z,99.99
2022-09-23T06:01:41.000Z,99.99
2022-09-23T06:02:41.000Z,99.99
2022-09-23T06:03:41.000Z,99.99
2022-09-23T06:04:41.000Z,99.99
2022-09-23T06:05:41.000Z,99.99
2022-09-23T06:06:41.000Z,99.99
2022-09-23T06:07:41.000Z,99.99
2022-09-23T06:08:41.000Z,99.99
2022-09-23T06:09:41.000Z,99.99
2022-09-23T06:10:41.000Z,99.99
2022-09-23T06:11:41.000Z,99.99
2022-09-23T06:12:41.000Z,99.99
2022-09-23T06:13:41.000Z,99.99
2022-09-23T06:14:41.000Z,99.99
2022-09-23T06:15:41.000Z,99.99
2022-09-23T06:16:41.000Z,99.99
2022-09-23T06:17:41.000Z,99.99
2022-09-23T06:18:41.000Z,99.99
2022-09-23T06:19:41.000Z,99.99
2022-09-23T06:20:41.000Z,99.99
2022-09-23T06:21:41.000Z,99.99
2022-09-23T06:22:41.000Z,99.99
2022-09-23T06:23:41.000Z,99.99
2022-09-23T06:24:41.000Z,99.99
2022-09-23T06:25:41.000Z,99.99
2022-09-23T06:26:41.000Z,99.99
2022-09-23T06:27:41.000Z,99.99
2022-09-23T06:28:41.000Z,99.99
2022-09-23T06:29:41.000Z,99.85
2022-09-23T06:30:41.000Z,99.95
2022-09-23T06:31:41.000Z,99.70
2022-09-23T06:32:40.000Z,99.60
2022-09-23T06:33:40.000Z,99.29
2022-09-23T06:34:40.000Z,99.08
2022-09-23T06:35:40.000Z,98.72
2022-09-23T06:36:40.000Z,98.62
2022-09-23T06:37:40.000Z,98.21
2022-09-23T06:38:40.000Z,98.21
2022-09-23T06:39:40.000Z,97.75
2022-09-23T06:40:40.000Z,97.14
2022-09-23T06:41:40.000Z,97.03
2022-09-23T06:42:40.000Z,96.83
2022-09-23T06:43:40.000Z,96.78
2022-09-23T06:44:40.000Z,96.47
2022-09-23T06:45:40.000Z,96.06
2022-09-23T06:46:40.000Z,95.86
2022-09-23T06:47:40.000Z,96.02
2022-09-23T06:48:40.000Z,95.71
2022-09-23T06:49:40.000Z,95.30
2022-09-23T06:50:40.000Z,95.71
2022-09-23T06:51:40.000Z,95.36
2022-09-23T06:52:40.000Z,94.95
2022-09-23T06:53:40.000Z,94.43
2022-09-23T06:54:40.000Z,94.54
2022-09-23T06:55:40.000Z,94.43
2022-09-23T06:56:40.000Z,93.87
2022-09-23T06:57:40.000Z,93.77
2022-09-23T06:58:40.000Z,93.77
2022-09-23T06:59:40.000Z,93.67
2022-09-23T07:00:40.000Z,93.32
2022-09-23T07:01:40.000Z,93.01
2022-09-23T07:02:40.000Z,92.70
2022-09-23T07:03:40.000Z,92.29
2022-09-23T07:04:40.000Z,91.78
2022-09-23T07:05:40.000Z,90.91
2022-09-23T07:06:40.000Z,90.71
2022-09-23T07:07:40.000Z,90.71
2022-09-23T07:08:40.000Z,89.75
2022-09-23T07:09:40.000Z,89.95
2022-09-23T07:10:40.000Z,89.13
2022-09-23T07:11:40.000Z,88.31
2022-09-23T07:12:40.000Z,88.21
2022-09-23T07:13:40.000Z,88.27
2022-09-23T07:14:40.000Z,87.85
2022-09-23T07:15:40.000Z,87.55
2022-09-23T07:16:40.000Z,87.34
2022-09-23T07:17:40.000Z,86.48
2022-09-23T07:18:40.000Z,86.38
2022-09-23T07:19:40.000Z,86.58
2022-09-23T07:20:40.000Z,86.69
2022-09-23T07:21:40.000Z,86.28
2022-09-23T07:22:40.000Z,86.18
2022-09-23T07:23:40.000Z,86.14
2022-09-23T07:24:40.000Z,86.14
2022-09-23T07:25:40.000Z,86.24
2022-09-23T07:26:40.000Z,86.14
2022-09-23T07:27:40.000Z,86.14
2022-09-23T07:28:40.000Z,85.69
2022-09-23T07:29:40.000Z,85.38
2022-09-23T07:30:40.000Z,85.38
2022-09-23T07:31:40.000Z,85.48
2022-09-23T07:32:40.000Z,85.64
2022-09-23T07:33:40.000Z,85.24
2022-09-23T07:34:40.000Z,85.44
2022-09-23T07:35:40.000Z,85.14
2022-09-23T07:36:40.000Z,85.03
2022-09-23T07:37:40.000Z,84.48
2022-09-23T07:38:40.000Z,84.79
2022-09-23T07:39:40.000Z,84.89
2022-09-23T07:40:40.000Z,84.07
2022-09-23T07:41:40.000Z,84.44
2022-09-23T07:42:40.000Z,84.34
2022-09-23T07:43:40.000Z,83.62
2022-09-23T07:44:40.000Z,83.52
2022-09-23T07:45:39.000Z,83.28
2022-09-23T07:46:39.000Z,83.18
2022-09-23T07:47:39.000Z,82.97
2022-09-23T07:48:39.000Z,83.07
2022-09-23T07:49:39.000Z,82.97
2022-09-23T07:50:39.000Z,82.42
2022-09-23T07:51:39.000Z,81.91
2022-09-23T07:52:39.000Z,82.01
2022-09-23T07:53:39.000Z,81.71
2022-09-23T07:54:39.000Z,81.71
2022-09-23T07:55:39.000Z,81.98
2022-09-23T07:56:39.000Z,81.46
2022-09-23T07:57:39.000Z,81.05
2022-09-23T07:58:39.000Z,80.24
2022-09-23T07:59:39.000Z,80.55
2022-09-23T08:00:39.000Z,80.65
2022-09-23T08:01:39.000Z,80.61
2022-09-23T08:02:39.000Z,80.30
2022-09-23T08:03:39.000Z,80.10
2022-09-23T08:04:39.000Z,79.59
2022-09-23T08:05:39.000Z,79.69
2022-09-23T08:06:39.000Z,79.25
2022-09-23T08:07:39.000Z,78.64
2022-09-23T08:08:39.000Z,78.84
2022-09-23T08:09:39.000Z,78.84
2022-09-23T08:10:39.000Z,78.53
2022-09-23T08:11:39.000Z,78.19
2022-09-23T08:12:39.000Z,78.70
2022-09-23T08:13:39.000Z,77.07
2022-09-23T08:14:39.000Z,76.42
2022-09-23T08:15:39.000Z,77.14
2022-09-23T08:16:39.000Z,75.67
2022-09-23T08:17:39.000Z,74.69
2022-09-23T08:18:39.000Z,73.09
2022-09-23T08:19:39.000Z,71.36
2022-09-23T08:20:39.000Z,68.96
2022-09-23T08:21:39.000Z,67.79
2022-09-23T08:22:39.000Z,66.33
2022-09-23T08:23:39.000Z,66.10
2022-09-23T08:24:39.000Z,64.32
2022-09-23T08:25:39.000Z,62.74
2022-09-23T08:26:39.000Z,62.01
2022-09-23T08:27:39.000Z,63.09
2022-09-23T08:28:39.000Z,60.94
2022-09-23T08:29:39.000Z,59.40
2022-09-23T08:30:39.000Z,57.86
2022-09-23T08:31:39.000Z,57.25
2022-09-23T08:32:39.000Z,57.15
2022-09-23T08:33:39.000Z,58.59
2022-09-23T08:34:39.000Z,59.20
2022-09-23T08:35:39.000Z,59.07
2022-09-23T08:36:39.000Z,58.16
2022-09-23T08:37:39.000Z,57.93
2022-09-23T08:38:39.000Z,56.80
2022-09-23T08:39:39.000Z,55.76
2022-09-23T08:40:39.000Z,54.55
2022-09-23T08:41:39.000Z,55.29
2022-09-23T08:42:39.000Z,55.96
2022-09-23T08:43:39.000Z,55.89
2022-09-23T08:44:39.000Z,55.66
2022-09-23T08:45:39.000Z,56.07
2022-09-23T08:46:39.000Z,55.94
2022-09-23T08:47:39.000Z,55.61
2022-09-23T08:48:39.000Z,55.00
2022-09-23T08:49:39.000Z,53.97
2022-09-23T08:50:39.000Z,54.48
2022-09-23T08:51:39.000Z,53.07
2022-09-23T08:52:39.000Z,52.37
2022-09-23T08:52:39.000Z,52.37
2022-09-23T08:53:39.000Z,53.17
2022-09-23T08:53:39.000Z,53.17
2022-09-23T08:54:39.000Z,52.37
2022-09-23T08:54:39.000Z,52.37
2022-09-23T08:55:39.000Z,52.19
2022-09-23T08:55:39.000Z,52.19
2022-09-23T08:56:39.000Z,52.69
2022-09-23T08:56:39.000Z,52.69
2022-09-23T08:57:38.000Z,53.30
2022-09-23T08:58:38.000Z,52.69
2022-09-23T08:59:38.000Z,51.36
2022-09-23T09:00:38.000Z,52.47
2022-09-23T09:01:38.000Z,52.26
2022-09-23T09:02:38.000Z,51.74
2022-09-23T09:03:38.000Z,51.76
2022-09-23T09:04:38.000Z,52.04
2022-09-23T09:05:38.000Z,52.64
2022-09-23T09:06:38.000Z,52.64
2022-09-23T09:07:38.000Z,51.44
2022-09-23T09:08:38.000Z,51.56
2022-09-23T09:09:38.000Z,52.57
2022-09-23T09:10:38.000Z,52.80
2022-09-23T09:11:38.000Z,54.10
2022-09-23T09:12:38.000Z,53.72
2022-09-23T09:13:38.000Z,54.63
2022-09-23T09:14:38.000Z,53.22
2022-09-23T09:15:38.000Z,53.50
2022-09-23T09:16:38.000Z,53.47
2022-09-23T09:17:38.000Z,54.38
2022-09-23T09:18:38.000Z,53.05
2022-09-23T09:19:38.000Z,52.74
2022-09-23T09:20:38.000Z,52.51
2022-09-23T09:21:38.000Z,51.39
2022-09-23T09:22:38.000Z,51.19
2022-09-23T09:23:38.000Z,50.76
2022-09-23T09:24:38.000Z,50.29
2022-09-23T09:25:38.000Z,50.38
2022-09-23T09:26:38.000Z,51.69
2022-09-23T09:27:38.000Z,52.57
2022-09-23T09:28:38.000Z,50.36
2022-09-23T09:29:38.000Z,50.26
2022-09-23T09:30:38.000Z,51.37
2022-09-23T09:31:38.000Z,50.04
2022-09-23T09:32:38.000Z,50.42
2022-09-23T09:33:38.000Z,50.29
2022-09-23T09:34:38.000Z,48.38
2022-09-23T09:35:38.000Z,48.99
2022-09-23T09:36:38.000Z,49.37
2022-09-23T09:37:38.000Z,49.37
2022-09-23T09:38:38.000Z,49.84
2022-09-23T09:39:38.000Z,48.46
2022-09-23T09:40:38.000Z,50.96
2022-09-23T09:41:38.000Z,48.96
2022-09-23T09:42:38.000Z,48.57
2022-09-23T09:43:38.000Z,48.36
2022-09-23T09:44:38.000Z,49.07
2022-09-23T09:45:38.000Z,47.76
2022-09-23T09:46:38.000Z,48.89
2022-09-23T09:47:38.000Z,49.39
2022-09-23T09:48:38.000Z,49.58
2022-09-23T09:49:38.000Z,49.76
2022-09-23T09:50:38.000Z,49.66
2022-09-23T09:51:38.000Z,48.57
2022-09-23T09:52:38.000Z,49.37
2022-09-23T09:53:38.000Z,48.66
2022-09-23T09:54:38.000Z,48.44
2022-09-23T09:55:38.000Z,46.24
2022-09-23T09:56:38.000Z,48.14
2022-09-23T09:57:38.000Z,47.52
2022-09-23T09:58:38.000Z,46.94
2022-09-23T09:59:38.000Z,48.96
2022-09-23T10:00:38.000Z,47.96
2022-09-23T10:01:38.000Z,47.66
2022-09-23T10:02:38.000Z,47.56
2022-09-23T10:03:38.000Z,47.84
2022-09-23T10:04:38.000Z,47.26
2022-09-23T10:05:38.000Z,46.54
2022-09-23T10:06:38.000Z,47.44
2022-09-23T10:07:38.000Z,47.54
2022-09-23T10:08:38.000Z,47.74
2022-09-23T10:09:37.000Z,47.84
2022-09-23T10:10:37.000Z,47.84
2022-09-23T10:11:37.000Z,47.54
2022-09-23T10:12:37.000Z,48.57
2022-09-23T10:13:37.000Z,47.66
2022-09-23T10:14:37.000Z,46.96
2022-09-23T10:15:37.000Z,46.98
2022-09-23T10:16:37.000Z,48.49
2022-09-23T10:17:37.000Z,49.29
2022-09-23T10:18:37.000Z,47.81
2022-09-23T10:19:37.000Z,49.51
2022-09-23T10:20:37.000Z,48.93
2022-09-23T10:21:37.000Z,49.93
2022-09-23T10:22:37.000Z,50.44
2022-09-23T10:23:37.000Z,50.13
2022-09-23T10:24:37.000Z,49.84
2022-09-23T10:25:37.000Z,49.63
2022-09-23T10:26:37.000Z,49.41
2022-09-23T10:27:37.000Z,50.51
2022-09-23T10:28:37.000Z,49.89
2022-09-23T10:29:37.000Z,49.29
2022-09-23T10:30:37.000Z,49.08
2022-09-23T10:31:37.000Z,49.26
2022-09-23T10:32:37.000Z,48.16
2022-09-23T10:33:37.000Z,48.76
2022-09-23T10:34:37.000Z,48.36
2022-09-23T10:35:37.000Z,47.06
2022-09-23T10:36:37.000Z,47.96
2022-09-23T10:37:37.000Z,47.86
2022-09-23T10:38:37.000Z,48.86
2022-09-23T10:39:37.000Z,48.86
2022-09-23T10:40:37.000Z,49.57
2022-09-23T10:41:37.000Z,49.24
2022-09-23T10:42:37.000Z,48.14
2022-09-23T10:43:37.000Z,48.04
2022-09-23T10:44:37.000Z,49.14
2022-09-23T10:45:37.000Z,48.82
2022-09-23T10:46:37.000Z,47.61
2022-09-23T10:47:37.000Z,48.84
2022-09-23T10:48:37.000Z,49.29
2022-09-23T10:49:37.000Z,49.99
2022-09-23T10:50:37.000Z,50.19
2022-09-23T10:51:37.000Z,48.99
2022-09-23T10:52:37.000Z,49.58
2022-09-23T10:53:37.000Z,48.89
2022-09-23T10:54:37.000Z,48.08
2022-09-23T10:55:37.000Z,48.49
2022-09-23T10:56:37.000Z,49.99
2022-09-23T10:57:37.000Z,49.49
2022-09-23T10:58:37.000Z,48.79
2022-09-23T10:59:37.000Z,48.99
2022-09-23T11:00:37.000Z,48.99
2022-09-23T11:01:37.000Z,51.99
2022-09-23T11:02:37.000Z,50.09
2022-09-23T11:03:37.000Z,49.76
2022-09-23T11:04:37.000Z,49.66
2022-09-23T11:05:37.000Z,50.37
2022-09-23T11:06:37.000Z,48.04
2022-09-23T11:07:37.000Z,47.24
2022-09-23T11:08:37.000Z,47.92
2022-09-23T11:09:37.000Z,48.22
2022-09-23T11:10:37.000Z,47.81
2022-09-23T11:11:37.000Z,48.32
2022-09-23T11:12:37.000Z,47.22
2022-09-23T11:13:37.000Z,47.42
2022-09-23T11:14:37.000Z,47.52
2022-09-23T11:15:37.000Z,47.92
2022-09-23T11:16:37.000Z,48.92
2022-09-23T11:17:37.000Z,48.02
2022-09-23T11:18:37.000Z,45.74
2022-09-23T11:19:37.000Z,47.11
2022-09-23T11:20:37.000Z,46.64
2022-09-23T11:21:36.000Z,47.74
2022-09-23T11:22:36.000Z,46.62
2022-09-23T11:23:36.000Z,46.22
2022-09-23T11:24:36.000Z,46.22
2022-09-23T11:25:36.000Z,44.82
2022-09-23T11:26:36.000Z,46.19
2022-09-23T11:27:36.000Z,45.69
2022-09-23T11:28:36.000Z,45.37
2022-09-23T11:29:36.000Z,44.07
2022-09-23T11:30:36.000Z,44.15
2022-09-23T11:31:36.000Z,44.33
2022-09-23T11:32:36.000Z,44.33
2022-09-23T11:33:36.000Z,44.11
2022-09-23T11:34:36.000Z,43.41
2022-09-23T11:35:36.000Z,44.51
2022-09-23T11:36:36.000Z,42.81
2022-09-23T11:37:36.000Z,43.63
2022-09-23T11:38:36.000Z,42.83
2022-09-23T11:39:36.000Z,44.67
2022-09-23T11:40:36.000Z,45.29
2022-09-23T11:41:36.000Z,44.82
2022-09-23T11:42:36.000Z,45.84
2022-09-23T11:43:36.000Z,46.24
2022-09-23T11:44:36.000Z,46.01
2022-09-23T11:45:36.000Z,46.09
2022-09-23T11:46:36.000Z,48.17
2022-09-23T11:47:36.000Z,48.94
2022-09-23T11:48:36.000Z,45.23
2022-09-23T11:49:36.000Z,45.03
2022-09-23T11:50:36.000Z,44.31
2022-09-23T11:51:36.000Z,45.01
2022-09-23T11:52:36.000Z,43.61
2022-09-23T11:53:36.000Z,43.91
2022-09-23T11:54:36.000Z,44.01
2022-09-23T11:55:36.000Z,42.99
2022-09-23T11:56:36.000Z,42.91
2022-09-23T11:57:36.000Z,43.13
2022-09-23T11:57:36.000Z,43.13
2022-09-23T11:58:36.000Z,43.23
2022-09-23T11:58:36.000Z,43.23
2022-09-23T11:59:36.000Z,43.65
2022-09-23T11:59:36.000Z,43.65
2022-09-23T12:00:36.000Z,44.65
2022-09-23T12:00:36.000Z,44.65
2022-09-23T12:01:36.000Z,45.65
2022-09-23T12:01:36.000Z,45.65
2022-09-23T12:02:36.000Z,45.67
2022-09-23T12:03:36.000Z,44.79
2022-09-23T12:04:36.000Z,46.42
2022-09-23T12:05:36.000Z,46.74
2022-09-23T12:06:36.000Z,47.26
2022-09-23T12:07:36.000Z,48.58
2022-09-23T12:08:36.000Z,49.19
2022-09-23T12:09:36.000Z,49.51
2022-09-23T12:10:36.000Z,50.62
2022-09-23T12:11:36.000Z,50.19
2022-09-23T12:12:36.000Z,50.46
2022-09-23T12:13:36.000Z,51.44
2022-09-23T12:14:36.000Z,51.64
2022-09-23T12:15:36.000Z,49.54
2022-09-23T12:16:36.000Z,48.64
2022-09-23T12:17:36.000Z,50.26
2022-09-23T12:18:36.000Z,49.87
2022-09-23T12:19:36.000Z,48.66
2022-09-23T12:20:36.000Z,47.96
2022-09-23T12:21:36.000Z,48.07
2022-09-23T12:22:36.000Z,47.58
2022-09-23T12:23:36.000Z,48.69
2022-09-23T12:24:36.000Z,49.71
2022-09-23T12:25:36.000Z,49.04
2022-09-23T12:26:36.000Z,48.75
2022-09-23T12:27:36.000Z,48.28
2022-09-23T12:28:36.000Z,49.88
2022-09-23T12:29:36.000Z,50.38
2022-09-23T12:30:36.000Z,49.88
2022-09-23T12:31:36.000Z,49.40
2022-09-23T12:32:36.000Z,50.79
2022-09-23T12:33:35.000Z,49.76
2022-09-23T12:34:35.000Z,51.94
2022-09-23T12:35:35.000Z,48.61
2022-09-23T12:36:35.000Z,49.58
2022-09-23T12:37:35.000Z,47.96